sensor_id;sensor_type;location;lat;lon;timestamp;pressure;altitude;pressure_sealevel;temperature;humidity
42433;BME280;28071;48.232;20.668;2023-05-29T00:01:50;99558.16;;;12.12;100.00
42433;BME280;28071;48.232;20.668;2023-05-29T00:06:50;99582.09;;;12.30;100.00
42433;BME280;28071;48.232;20.668;2023-05-29T00:11:51;99574.19;;;12.23;100.00
42433;BME280;28071;48.232;20.668;2023-05-29T00:16:53;99567.59;;;12.26;100.00
42433;BME280;28071;48.232;20.668;2023-05-29T00:21:53;99561.81;;;12.29;100.00
42433;BME280;28071;48.232;20.668;2023-05-29T00:26:54;99561.94;;;12.34;100.00
42433;BME280;28071;48.232;20.668;2023-05-29T00:31:54;99573.78;;;12.50;100.00
42433;BME280;28071;48.232;20.668;2023-05-29T00:36:55;99579.09;;;12.38;100.00
42433;BME280;28071;48.232;20.668;2023-05-29T00:41:56;99570.41;;;12.43;100.00
42433;BME280;28071;48.232;20.668;2023-05-29T00:46:56;99569.84;;;12.41;100.00
42433;BME280;28071;48.232;20.668;2023-05-29T00:51:58;99573.84;;;12.32;100.00
42433;BME280;28071;48.232;20.668;2023-05-29T00:56:59;99560.84;;;12.23;100.00
42433;BME280;28071;48.232;20.668;2023-05-29T01:02:02;99566.81;;;12.37;100.00
42433;BME280;28071;48.232;20.668;2023-05-29T01:07:03;99572.28;;;12.54;100.00
42433;BME280;28071;48.232;20.668;2023-05-29T01:17:55;99578.47;;;12.55;100.00
42433;BME280;28071;48.232;20.668;2023-05-29T01:23:12;99566.84;;;12.61;100.00
42433;BME280;28071;48.232;20.668;2023-05-29T01:28:21;99529.94;;;12.34;100.00
42433;BME280;28071;48.232;20.668;2023-05-29T01:33:26;99547.25;;;12.55;100.00
42433;BME280;28071;48.232;20.668;2023-05-29T01:38:27;99554.50;;;12.36;100.00
42433;BME280;28071;48.232;20.668;2023-05-29T01:43:27;99554.16;;;12.33;100.00
42433;BME280;28071;48.232;20.668;2023-05-29T01:48:29;99565.47;;;12.16;100.00
42433;BME280;28071;48.232;20.668;2023-05-29T01:53:30;99567.00;;;12.24;100.00
42433;BME280;28071;48.232;20.668;2023-05-29T01:58:31;99568.09;;;12.35;100.00
42433;BME280;28071;48.232;20.668;2023-05-29T02:03:33;99530.78;;;12.05;100.00
42433;BME280;28071;48.232;20.668;2023-05-29T02:08:33;99551.22;;;12.11;100.00
42433;BME280;28071;48.232;20.668;2023-05-29T02:13:34;99553.06;;;12.10;100.00
42433;BME280;28071;48.232;20.668;2023-05-29T02:18:34;99551.56;;;12.14;100.00
42433;BME280;28071;48.232;20.668;2023-05-29T02:23:35;99540.47;;;12.17;100.00
42433;BME280;28071;48.232;20.668;2023-05-29T02:28:35;99553.91;;;12.22;100.00
42433;BME280;28071;48.232;20.668;2023-05-29T02:33:36;99553.81;;;12.29;100.00
42433;BME280;28071;48.232;20.668;2023-05-29T02:38:36;99555.09;;;12.27;100.00
42433;BME280;28071;48.232;20.668;2023-05-29T02:43:36;99548.03;;;12.32;100.00
42433;BME280;28071;48.232;20.668;2023-05-29T02:48:37;99549.03;;;12.19;100.00
42433;BME280;28071;48.232;20.668;2023-05-29T02:53:37;99551.69;;;12.19;100.00
42433;BME280;28071;48.232;20.668;2023-05-29T02:58:38;99533.59;;;12.10;100.00
42433;BME280;28071;48.232;20.668;2023-05-29T03:03:38;99552.50;;;12.20;100.00
42433;BME280;28071;48.232;20.668;2023-05-29T03:08:39;99550.75;;;12.14;100.00
42433;BME280;28071;48.232;20.668;2023-05-29T03:13:45;99547.66;;;12.17;100.00
42433;BME280;28071;48.232;20.668;2023-05-29T03:18:47;99556.94;;;12.26;100.00
42433;BME280;28071;48.232;20.668;2023-05-29T03:23:47;99561.91;;;12.22;100.00
42433;BME280;28071;48.232;20.668;2023-05-29T03:28:47;99561.94;;;12.34;100.00
42433;BME280;28071;48.232;20.668;2023-05-29T03:33:49;99510.63;;;12.09;100.00
42433;BME280;28071;48.232;20.668;2023-05-29T03:38:50;99564.94;;;12.38;100.00
42433;BME280;28071;48.232;20.668;2023-05-29T03:43:50;99546.38;;;12.19;100.00
42433;BME280;28071;48.232;20.668;2023-05-29T03:48:51;99560.66;;;12.37;100.00
42433;BME280;28071;48.232;20.668;2023-05-29T03:53:51;99548.75;;;12.39;100.00
42433;BME280;28071;48.232;20.668;2023-05-29T03:58:52;99562.44;;;12.55;100.00
42433;BME280;28071;48.232;20.668;2023-05-29T04:03:52;99563.50;;;12.65;100.00
42433;BME280;28071;48.232;20.668;2023-05-29T04:08:53;99558.03;;;12.72;100.00
42433;BME280;28071;48.232;20.668;2023-05-29T04:13:53;99549.34;;;12.76;100.00
42433;BME280;28071;48.232;20.668;2023-05-29T04:18:54;99565.47;;;12.93;100.00
42433;BME280;28071;48.232;20.668;2023-05-29T04:23:55;99555.84;;;13.04;100.00
42433;BME280;28071;48.232;20.668;2023-05-29T04:28:55;99560.69;;;13.19;100.00
42433;BME280;28071;48.232;20.668;2023-05-29T04:33:59;99569.63;;;13.36;100.00
42433;BME280;28071;48.232;20.668;2023-05-29T04:39:00;99573.06;;;13.60;100.00
42433;BME280;28071;48.232;20.668;2023-05-29T04:44:01;99567.13;;;13.70;100.00
42433;BME280;28071;48.232;20.668;2023-05-29T04:49:01;99577.88;;;13.86;100.00
42433;BME280;28071;48.232;20.668;2023-05-29T04:54:03;99581.50;;;14.09;100.00
42433;BME280;28071;48.232;20.668;2023-05-29T04:59:03;99580.16;;;14.23;100.00
42433;BME280;28071;48.232;20.668;2023-05-29T05:04:04;99582.22;;;14.50;100.00
42433;BME280;28071;48.232;20.668;2023-05-29T05:09:04;99581.63;;;14.59;100.00
42433;BME280;28071;48.232;20.668;2023-05-29T05:14:05;99592.97;;;14.66;100.00
42433;BME280;28071;48.232;20.668;2023-05-29T05:19:05;99591.63;;;15.03;100.00
42433;BME280;28071;48.232;20.668;2023-05-29T05:24:06;99596.06;;;15.31;97.35
42433;BME280;28071;48.232;20.668;2023-05-29T05:29:06;99589.97;;;15.57;96.06
42433;BME280;28071;48.232;20.668;2023-05-29T05:34:07;99606.25;;;15.94;96.87
42433;BME280;28071;48.232;20.668;2023-05-29T05:39:07;99593.19;;;16.25;95.91
42433;BME280;28071;48.232;20.668;2023-05-29T05:44:07;99603.72;;;16.63;91.77
42433;BME280;28071;48.232;20.668;2023-05-29T05:49:08;99606.63;;;16.89;89.77
42433;BME280;28071;48.232;20.668;2023-05-29T05:54:08;99620.81;;;17.16;88.24
42433;BME280;28071;48.232;20.668;2023-05-29T05:59:09;99629.69;;;17.22;85.43
42433;BME280;28071;48.232;20.668;2023-05-29T06:04:09;99607.19;;;17.33;85.55
42433;BME280;28071;48.232;20.668;2023-05-29T06:09:10;99625.09;;;17.65;86.41
42433;BME280;28071;48.232;20.668;2023-05-29T06:14:11;99616.34;;;17.85;83.96
42433;BME280;28071;48.232;20.668;2023-05-29T06:19:12;99621.22;;;17.98;83.76
42433;BME280;28071;48.232;20.668;2023-05-29T06:24:12;99608.03;;;17.91;84.52
42433;BME280;28071;48.232;20.668;2023-05-29T06:29:13;99633.94;;;18.18;85.99
42433;BME280;28071;48.232;20.668;2023-05-29T06:34:13;99627.25;;;18.30;84.15
42433;BME280;28071;48.232;20.668;2023-05-29T06:39:14;99629.94;;;18.41;84.78
42433;BME280;28071;48.232;20.668;2023-05-29T06:44:15;99630.00;;;18.71;82.41
42433;BME280;28071;48.232;20.668;2023-05-29T06:49:15;99636.47;;;19.01;83.19
42433;BME280;28071;48.232;20.668;2023-05-29T06:54:16;99629.13;;;19.27;78.42
42433;BME280;28071;48.232;20.668;2023-05-29T06:59:17;99631.28;;;19.45;77.62
42433;BME280;28071;48.232;20.668;2023-05-29T07:04:17;99639.00;;;19.77;79.04
42433;BME280;28071;48.232;20.668;2023-05-29T07:09:18;99635.72;;;19.95;74.84
42433;BME280;28071;48.232;20.668;2023-05-29T07:14:18;99635.19;;;20.38;73.95
42433;BME280;28071;48.232;20.668;2023-05-29T07:19:18;99628.28;;;20.66;70.64
42433;BME280;28071;48.232;20.668;2023-05-29T07:24:19;99635.56;;;20.99;71.52
42433;BME280;28071;48.232;20.668;2023-05-29T07:29:19;99635.59;;;21.28;69.16
42433;BME280;28071;48.232;20.668;2023-05-29T07:34:22;99609.97;;;21.45;64.67
42433;BME280;28071;48.232;20.668;2023-05-29T07:39:23;99632.81;;;21.81;63.11
42433;BME280;28071;48.232;20.668;2023-05-29T07:44:23;99647.63;;;22.13;56.96
42433;BME280;28071;48.232;20.668;2023-05-29T07:49:24;99650.50;;;22.40;54.86
42433;BME280;28071;48.232;20.668;2023-05-29T07:54:25;99656.44;;;22.61;55.13
42433;BME280;28071;48.232;20.668;2023-05-29T07:59:26;99653.28;;;22.54;55.51
42433;BME280;28071;48.232;20.668;2023-05-29T08:04:26;99649.59;;;22.64;55.48
42433;BME280;28071;48.232;20.668;2023-05-29T08:09:27;99658.72;;;23.06;56.07
42433;BME280;28071;48.232;20.668;2023-05-29T08:14:27;99647.66;;;23.62;54.33
42433;BME280;28071;48.232;20.668;2023-05-29T08:19:27;99657.13;;;23.92;53.81
42433;BME280;28071;48.232;20.668;2023-05-29T08:24:28;99657.81;;;23.84;54.25
42433;BME280;28071;48.232;20.668;2023-05-29T08:29:29;99652.78;;;24.05;53.91
42433;BME280;28071;48.232;20.668;2023-05-29T08:34:30;99654.50;;;24.01;53.89
42433;BME280;28071;48.232;20.668;2023-05-29T08:39:30;99659.16;;;24.50;53.23
42433;BME280;28071;48.232;20.668;2023-05-29T08:44:31;99644.25;;;24.92;52.80
42433;BME280;28071;48.232;20.668;2023-05-29T08:49:45;99624.59;;;24.73;51.37
42433;BME280;28071;48.232;20.668;2023-05-29T08:54:52;99640.72;;;25.14;52.28
42433;BME280;28071;48.232;20.668;2023-05-29T08:59:53;99631.72;;;25.36;51.96
42433;BME280;28071;48.232;20.668;2023-05-29T09:04:55;99634.91;;;25.69;50.66
42433;BME280;28071;48.232;20.668;2023-05-29T09:09:57;99639.50;;;26.26;49.40
42433;BME280;28071;48.232;20.668;2023-05-29T09:14:58;99637.31;;;26.54;47.80
42433;BME280;28071;48.232;20.668;2023-05-29T09:19:59;99644.31;;;26.90;46.65
42433;BME280;28071;48.232;20.668;2023-05-29T09:25:00;99631.47;;;26.99;45.28
42433;BME280;28071;48.232;20.668;2023-05-29T09:30:01;99613.16;;;26.99;45.95
42433;BME280;28071;48.232;20.668;2023-05-29T09:35:02;99622.47;;;27.16;46.04
42433;BME280;28071;48.232;20.668;2023-05-29T09:40:03;99622.13;;;27.55;44.27
42433;BME280;28071;48.232;20.668;2023-05-29T09:45:06;99634.31;;;27.96;42.41
42433;BME280;28071;48.232;20.668;2023-05-29T09:50:18;99610.63;;;28.30;42.93
42433;BME280;28071;48.232;20.668;2023-05-29T09:55:20;99628.00;;;28.67;42.53
42433;BME280;28071;48.232;20.668;2023-05-29T10:00:21;99618.56;;;28.64;42.04
42433;BME280;28071;48.232;20.668;2023-05-29T10:05:22;99621.00;;;29.11;40.60
42433;BME280;28071;48.232;20.668;2023-05-29T10:10:24;99610.75;;;29.33;40.48
42433;BME280;28071;48.232;20.668;2023-05-29T10:15:28;99603.09;;;29.75;39.71
42433;BME280;28071;48.232;20.668;2023-05-29T10:20:32;99587.66;;;29.46;38.32
42433;BME280;28071;48.232;20.668;2023-05-29T10:25:35;99585.88;;;29.50;38.92
42433;BME280;28071;48.232;20.668;2023-05-29T10:30:43;99574.53;;;29.88;38.35
42433;BME280;28071;48.232;20.668;2023-05-29T10:36:10;99588.28;;;30.28;37.09
42433;BME280;28071;48.232;20.668;2023-05-29T10:41:28;99604.84;;;30.88;35.98
42433;BME280;28071;48.232;20.668;2023-05-29T10:51:52;99592.44;;;31.22;34.39
42433;BME280;28071;48.232;20.668;2023-05-29T10:56:56;99576.00;;;31.26;34.70
42433;BME280;28071;48.232;20.668;2023-05-29T11:01:57;99561.84;;;30.36;36.81
42433;BME280;28071;48.232;20.668;2023-05-29T11:07:01;99565.38;;;31.24;35.39
42433;BME280;28071;48.232;20.668;2023-05-29T11:12:15;99571.53;;;31.21;33.54
42433;BME280;28071;48.232;20.668;2023-05-29T11:27:56;99580.84;;;32.34;31.41
42433;BME280;28071;48.232;20.668;2023-05-29T11:33:01;99561.69;;;32.41;29.82
42433;BME280;28071;48.232;20.668;2023-05-29T11:38:05;99553.25;;;32.50;28.83
42433;BME280;28071;48.232;20.668;2023-05-29T11:43:05;99579.66;;;32.54;28.64
42433;BME280;28071;48.232;20.668;2023-05-29T11:48:06;99561.94;;;32.75;28.36
42433;BME280;28071;48.232;20.668;2023-05-29T11:53:07;99558.03;;;32.76;28.08
42433;BME280;28071;48.232;20.668;2023-05-29T11:58:08;99555.97;;;31.92;29.22
42433;BME280;28071;48.232;20.668;2023-05-29T12:03:08;99538.88;;;31.32;30.68
42433;BME280;28071;48.232;20.668;2023-05-29T12:08:09;99534.06;;;31.44;31.45
42433;BME280;28071;48.232;20.668;2023-05-29T12:13:10;99539.47;;;31.76;31.80
42433;BME280;28071;48.232;20.668;2023-05-29T12:18:11;99525.13;;;31.32;30.09
42433;BME280;28071;48.232;20.668;2023-05-29T12:23:11;99523.56;;;31.50;30.28
42433;BME280;28071;48.232;20.668;2023-05-29T12:28:21;99527.13;;;31.19;30.34
42433;BME280;28071;48.232;20.668;2023-05-29T12:33:28;99530.97;;;31.46;29.92
42433;BME280;28071;48.232;20.668;2023-05-29T12:38:29;99517.56;;;31.80;29.27
42433;BME280;28071;48.232;20.668;2023-05-29T12:43:30;99513.50;;;31.38;29.23
42433;BME280;28071;48.232;20.668;2023-05-29T12:48:31;99507.84;;;30.40;32.18
42433;BME280;28071;48.232;20.668;2023-05-29T12:53:31;99492.84;;;29.81;34.28
42433;BME280;28071;48.232;20.668;2023-05-29T12:58:31;99483.88;;;29.32;35.58
42433;BME280;28071;48.232;20.668;2023-05-29T13:03:32;99492.88;;;28.84;38.21
42433;BME280;28071;48.232;20.668;2023-05-29T13:08:33;99497.25;;;28.39;39.53
42433;BME280;28071;48.232;20.668;2023-05-29T13:13:34;99484.13;;;28.33;40.77
42433;BME280;28071;48.232;20.668;2023-05-29T13:18:35;99476.81;;;28.82;40.12
42433;BME280;28071;48.232;20.668;2023-05-29T13:23:35;99462.66;;;28.02;41.21
42433;BME280;28071;48.232;20.668;2023-05-29T13:28:36;99465.25;;;28.52;40.57
42433;BME280;28071;48.232;20.668;2023-05-29T13:33:36;99462.78;;;28.84;39.57
42433;BME280;28071;48.232;20.668;2023-05-29T13:38:36;99444.38;;;28.47;38.46
42433;BME280;28071;48.232;20.668;2023-05-29T13:43:37;99443.63;;;28.84;39.23
42433;BME280;28071;48.232;20.668;2023-05-29T13:48:37;99452.03;;;28.79;36.85
42433;BME280;28071;48.232;20.668;2023-05-29T13:53:38;99463.66;;;29.61;36.42
42433;BME280;28071;48.232;20.668;2023-05-29T13:58:38;99453.88;;;28.87;34.95
42433;BME280;28071;48.232;20.668;2023-05-29T14:03:39;99461.63;;;30.26;34.08
42433;BME280;28071;48.232;20.668;2023-05-29T14:08:39;99462.88;;;30.60;32.74
42433;BME280;28071;48.232;20.668;2023-05-29T14:13:40;99453.38;;;30.70;30.16
42433;BME280;28071;48.232;20.668;2023-05-29T14:18:40;99460.22;;;31.62;29.99
42433;BME280;28071;48.232;20.668;2023-05-29T14:23:41;99456.88;;;31.53;30.64
42433;BME280;28071;48.232;20.668;2023-05-29T14:28:42;99462.88;;;31.59;30.73
42433;BME280;28071;48.232;20.668;2023-05-29T14:33:42;99467.34;;;32.02;29.70
42433;BME280;28071;48.232;20.668;2023-05-29T14:38:43;99466.03;;;32.15;29.71
42433;BME280;28071;48.232;20.668;2023-05-29T14:43:44;99471.69;;;31.84;29.80
42433;BME280;28071;48.232;20.668;2023-05-29T14:48:45;99448.06;;;30.77;30.35
42433;BME280;28071;48.232;20.668;2023-05-29T14:53:47;99448.41;;;30.91;30.75
42433;BME280;28071;48.232;20.668;2023-05-29T14:58:48;99454.41;;;31.48;29.68
42433;BME280;28071;48.232;20.668;2023-05-29T15:03:48;99458.94;;;31.75;30.25
42433;BME280;28071;48.232;20.668;2023-05-29T15:08:49;99451.94;;;31.78;30.01
42433;BME280;28071;48.232;20.668;2023-05-29T15:13:50;99456.09;;;31.02;30.68
42433;BME280;28071;48.232;20.668;2023-05-29T15:18:51;99438.97;;;31.08;31.02
42433;BME280;28071;48.232;20.668;2023-05-29T15:23:51;99456.84;;;31.18;30.95
42433;BME280;28071;48.232;20.668;2023-05-29T15:28:52;99447.22;;;31.24;31.06
42433;BME280;28071;48.232;20.668;2023-05-29T15:33:52;99437.06;;;30.93;32.03
42433;BME280;28071;48.232;20.668;2023-05-29T15:38:53;99435.13;;;31.13;31.65
42433;BME280;28071;48.232;20.668;2023-05-29T15:43:54;99441.16;;;31.18;32.34
42433;BME280;28071;48.232;20.668;2023-05-29T15:48:54;99432.41;;;30.97;31.33
42433;BME280;28071;48.232;20.668;2023-05-29T15:53:55;99441.09;;;30.52;31.81
42433;BME280;28071;48.232;20.668;2023-05-29T15:58:55;99421.56;;;30.53;31.54
42433;BME280;28071;48.232;20.668;2023-05-29T16:03:56;99444.06;;;30.15;32.84
42433;BME280;28071;48.232;20.668;2023-05-29T16:08:56;99426.06;;;29.74;35.26
42433;BME280;28071;48.232;20.668;2023-05-29T16:13:56;99442.88;;;29.60;35.19
42433;BME280;28071;48.232;20.668;2023-05-29T16:18:57;99400.59;;;28.84;38.33
42433;BME280;28071;48.232;20.668;2023-05-29T16:23:58;99433.09;;;28.86;37.70
42433;BME280;28071;48.232;20.668;2023-05-29T16:29:02;99432.22;;;27.91;44.61
42433;BME280;28071;48.232;20.668;2023-05-29T16:34:03;99430.81;;;27.43;46.25
42433;BME280;28071;48.232;20.668;2023-05-29T16:39:05;99435.84;;;26.73;50.18
42433;BME280;28071;48.232;20.668;2023-05-29T16:44:05;99427.31;;;26.28;52.18
42433;BME280;28071;48.232;20.668;2023-05-29T16:49:06;99412.00;;;25.80;53.95
42433;BME280;28071;48.232;20.668;2023-05-29T16:54:07;99436.81;;;25.61;55.82
42433;BME280;28071;48.232;20.668;2023-05-29T16:59:07;99433.94;;;25.40;56.94
42433;BME280;28071;48.232;20.668;2023-05-29T17:04:08;99434.25;;;24.90;57.92
42433;BME280;28071;48.232;20.668;2023-05-29T17:09:10;99418.97;;;24.32;60.36
42433;BME280;28071;48.232;20.668;2023-05-29T17:14:10;99451.88;;;24.31;61.07
42433;BME280;28071;48.232;20.668;2023-05-29T17:19:11;99415.72;;;23.99;62.81
42433;BME280;28071;48.232;20.668;2023-05-29T17:24:11;99458.13;;;23.87;66.67
42433;BME280;28071;48.232;20.668;2023-05-29T17:29:12;99467.41;;;23.72;56.55
42433;BME280;28071;48.232;20.668;2023-05-29T17:34:15;99454.38;;;23.60;54.70
42433;BME280;28071;48.232;20.668;2023-05-29T17:39:15;99463.34;;;23.33;53.49
42433;BME280;28071;48.232;20.668;2023-05-29T17:44:16;99447.59;;;23.21;58.31
42433;BME280;28071;48.232;20.668;2023-05-29T17:49:17;99464.28;;;23.01;63.95
42433;BME280;28071;48.232;20.668;2023-05-29T17:54:17;99449.41;;;22.06;66.58
42433;BME280;28071;48.232;20.668;2023-05-29T17:59:18;99471.84;;;21.93;70.15
42433;BME280;28071;48.232;20.668;2023-05-29T18:04:18;99461.03;;;21.55;72.23
42433;BME280;28071;48.232;20.668;2023-05-29T18:09:19;99500.13;;;21.20;73.51
42433;BME280;28071;48.232;20.668;2023-05-29T18:14:19;99509.56;;;20.98;70.37
42433;BME280;28071;48.232;20.668;2023-05-29T18:19:19;99508.25;;;21.20;66.11
42433;BME280;28071;48.232;20.668;2023-05-29T18:24:20;99488.00;;;20.93;65.39
42433;BME280;28071;48.232;20.668;2023-05-29T18:29:20;99523.88;;;20.99;66.91
42433;BME280;28071;48.232;20.668;2023-05-29T18:34:21;99503.06;;;20.99;65.79
42433;BME280;28071;48.232;20.668;2023-05-29T18:39:21;99527.88;;;20.77;67.20
42433;BME280;28071;48.232;20.668;2023-05-29T18:44:22;99546.59;;;20.74;66.62
42433;BME280;28071;48.232;20.668;2023-05-29T18:49:22;99533.91;;;20.69;67.39
42433;BME280;28071;48.232;20.668;2023-05-29T18:54:23;99536.84;;;20.44;68.52
42433;BME280;28071;48.232;20.668;2023-05-29T18:59:23;99551.66;;;20.52;67.68
42433;BME280;28071;48.232;20.668;2023-05-29T19:04:24;99560.97;;;20.30;68.49
42433;BME280;28071;48.232;20.668;2023-05-29T19:09:24;99564.44;;;20.36;68.24
42433;BME280;28071;48.232;20.668;2023-05-29T19:14:25;99559.13;;;20.26;68.79
42433;BME280;28071;48.232;20.668;2023-05-29T19:19:25;99529.56;;;20.00;68.98
42433;BME280;28071;48.232;20.668;2023-05-29T19:24:25;99563.47;;;20.21;69.86
42433;BME280;28071;48.232;20.668;2023-05-29T19:29:26;99559.47;;;20.14;66.43
42433;BME280;28071;48.232;20.668;2023-05-29T19:34:26;99573.84;;;20.04;66.00
42433;BME280;28071;48.232;20.668;2023-05-29T19:39:27;99576.97;;;20.16;67.26
42433;BME280;28071;48.232;20.668;2023-05-29T19:44:28;99580.34;;;20.03;70.46
42433;BME280;28071;48.232;20.668;2023-05-29T19:49:28;99594.72;;;19.88;71.43
42433;BME280;28071;48.232;20.668;2023-05-29T19:54:28;99590.69;;;19.81;72.96
42433;BME280;28071;48.232;20.668;2023-05-29T19:59:30;99593.16;;;19.72;73.32
42433;BME280;28071;48.232;20.668;2023-05-29T20:04:31;99588.09;;;19.45;76.66
42433;BME280;28071;48.232;20.668;2023-05-29T20:09:36;99573.63;;;19.21;81.05
42433;BME280;28071;48.232;20.668;2023-05-29T20:14:37;99604.41;;;18.84;83.53
42433;BME280;28071;48.232;20.668;2023-05-29T20:19:37;99603.84;;;18.62;83.35
42433;BME280;28071;48.232;20.668;2023-05-29T20:24:39;99592.78;;;18.63;81.32
42433;BME280;28071;48.232;20.668;2023-05-29T20:29:40;99581.75;;;18.54;79.29
42433;BME280;28071;48.232;20.668;2023-05-29T20:34:41;99606.25;;;18.63;76.67
42433;BME280;28071;48.232;20.668;2023-05-29T20:39:41;99606.78;;;18.65;76.27
42433;BME280;28071;48.232;20.668;2023-05-29T20:44:44;99603.03;;;18.66;74.50
42433;BME280;28071;48.232;20.668;2023-05-29T20:49:44;99611.38;;;18.49;73.26
42433;BME280;28071;48.232;20.668;2023-05-29T20:54:45;99621.88;;;18.46;71.33
42433;BME280;28071;48.232;20.668;2023-05-29T20:59:45;99611.94;;;18.51;72.01
42433;BME280;28071;48.232;20.668;2023-05-29T21:04:45;99622.66;;;18.41;71.10
42433;BME280;28071;48.232;20.668;2023-05-29T21:09:46;99617.00;;;18.33;71.21
42433;BME280;28071;48.232;20.668;2023-05-29T21:14:46;99611.88;;;18.26;70.32
42433;BME280;28071;48.232;20.668;2023-05-29T21:19:47;99610.00;;;18.26;70.62
42433;BME280;28071;48.232;20.668;2023-05-29T21:24:47;99613.19;;;18.08;72.26
42433;BME280;28071;48.232;20.668;2023-05-29T21:29:47;99609.41;;;18.04;72.21
42433;BME280;28071;48.232;20.668;2023-05-29T21:34:48;99605.34;;;17.96;73.38
42433;BME280;28071;48.232;20.668;2023-05-29T21:39:49;99589.06;;;17.66;77.90
42433;BME280;28071;48.232;20.668;2023-05-29T21:44:50;99591.41;;;17.47;79.52
42433;BME280;28071;48.232;20.668;2023-05-29T21:49:50;99584.50;;;17.14;81.74
42433;BME280;28071;48.232;20.668;2023-05-29T21:54:51;99579.84;;;16.99;82.65
42433;BME280;28071;48.232;20.668;2023-05-29T21:59:52;99587.63;;;16.63;85.72
42433;BME280;28071;48.232;20.668;2023-05-29T22:04:52;99577.75;;;16.42;89.47
42433;BME280;28071;48.232;20.668;2023-05-29T22:09:53;99555.34;;;16.26;89.93
42433;BME280;28071;48.232;20.668;2023-05-29T22:14:53;99570.72;;;16.09;90.31
42433;BME280;28071;48.232;20.668;2023-05-29T22:19:53;99572.59;;;15.81;93.55
42433;BME280;28071;48.232;20.668;2023-05-29T22:24:55;99570.28;;;15.68;94.73
42433;BME280;28071;48.232;20.668;2023-05-29T22:29:55;99560.06;;;15.43;96.41
42433;BME280;28071;48.232;20.668;2023-05-29T22:34:56;99572.19;;;15.29;99.07
42433;BME280;28071;48.232;20.668;2023-05-29T22:39:57;99544.75;;;15.22;98.97
42433;BME280;28071;48.232;20.668;2023-05-29T22:44:57;99554.22;;;15.08;100.00
42433;BME280;28071;48.232;20.668;2023-05-29T22:49:57;99552.59;;;15.07;100.00
42433;BME280;28071;48.232;20.668;2023-05-29T22:54:59;99557.69;;;15.08;100.00
42433;BME280;28071;48.232;20.668;2023-05-29T22:59:59;99547.78;;;15.09;100.00
42433;BME280;28071;48.232;20.668;2023-05-29T23:04:59;99542.78;;;14.95;100.00
42433;BME280;28071;48.232;20.668;2023-05-29T23:10:00;99544.34;;;14.91;100.00
42433;BME280;28071;48.232;20.668;2023-05-29T23:15:01;99548.00;;;14.85;100.00
42433;BME280;28071;48.232;20.668;2023-05-29T23:20:01;99538.84;;;14.81;100.00
42433;BME280;28071;48.232;20.668;2023-05-29T23:25:05;99548.50;;;14.82;100.00
42433;BME280;28071;48.232;20.668;2023-05-29T23:30:06;99544.00;;;14.88;100.00
42433;BME280;28071;48.232;20.668;2023-05-29T23:35:08;99544.13;;;14.76;100.00
42433;BME280;28071;48.232;20.668;2023-05-29T23:40:09;99538.84;;;14.81;100.00
42433;BME280;28071;48.232;20.668;2023-05-29T23:45:10;99538.28;;;14.62;100.00
42433;BME280;28071;48.232;20.668;2023-05-29T23:50:11;99548.72;;;14.81;100.00
42433;BME280;28071;48.232;20.668;2023-05-29T23:55:12;99547.03;;;14.91;100.00
